sensor_id;sensor_type;location;lat;lon;timestamp;P1;durP1;ratioP1;P2;durP2;ratioP2
38220;SDS011;24023;51.280;7.148;2023-04-01T00:00:10;2.0;;;0.5;;
38220;SDS011;24023;51.280;7.148;2023-04-01T00:05:06;2.0;;;0.5;;
38220;SDS011;24023;51.280;7.148;2023-04-01T00:10:09;2.0;;;0.5;;
38220;SDS011;24023;51.280;7.148;2023-04-01T00:15:09;2.5;;;0.5;;
38220;SDS011;24023;51.280;7.148;2023-04-01T00:20:08;2.5;;;0.5;;
38220;SDS011;24023;51.280;7.148;2023-04-01T00:25:06;2.5;;;0.4;;
38220;SDS011;24023;51.280;7.148;2023-04-01T00:30:09;2.5;;;0.4;;
38220;SDS011;24023;51.280;7.148;2023-04-01T00:35:06;2.5;;;0.4;;
38220;SDS011;24023;51.280;7.148;2023-04-01T00:40:10;2.1;;;0.3;;
38220;SDS011;24023;51.280;7.148;2023-04-01T00:45:27;2.1;;;0.3;;
38220;SDS011;24023;51.280;7.148;2023-04-01T00:50:08;0.8;;;0.2;;
38220;SDS011;24023;51.280;7.148;2023-04-01T00:55:07;0.8;;;0.2;;
38220;SDS011;24023;51.280;7.148;2023-04-01T01:00:11;2.0;;;0.3;;
38220;SDS011;24023;51.280;7.148;2023-04-01T01:05:06;2.0;;;0.3;;
38220;SDS011;24023;51.280;7.148;2023-04-01T01:10:09;2.0;;;0.3;;
38220;SDS011;24023;51.280;7.148;2023-04-01T01:15:09;1.1;;;0.2;;
38220;SDS011;24023;51.280;7.148;2023-04-01T01:20:16;1.1;;;0.2;;
38220;SDS011;24023;51.280;7.148;2023-04-01T01:25:10;1.3;;;0.3;;
38220;SDS011;24023;51.280;7.148;2023-04-01T01:30:10;1.3;;;0.3;;
38220;SDS011;24023;51.280;7.148;2023-04-01T01:35:11;1.3;;;0.3;;
38220;SDS011;24023;51.280;7.148;2023-04-01T01:40:09;0.8;;;0.2;;
38220;SDS011;24023;51.280;7.148;2023-04-01T01:45:09;0.8;;;0.2;;
38220;SDS011;24023;51.280;7.148;2023-04-01T01:50:08;2.3;;;0.3;;
38220;SDS011;24023;51.280;7.148;2023-04-01T01:55:22;2.3;;;0.3;;
38220;SDS011;24023;51.280;7.148;2023-04-01T02:00:14;2.3;;;0.3;;
38220;SDS011;24023;51.280;7.148;2023-04-01T02:05:06;1.1;;;0.2;;
38220;SDS011;24023;51.280;7.148;2023-04-01T02:10:08;1.1;;;0.2;;
38220;SDS011;24023;51.280;7.148;2023-04-01T02:15:09;1.1;;;0.2;;
38220;SDS011;24023;51.280;7.148;2023-04-01T02:20:09;1.1;;;0.2;;
38220;SDS011;24023;51.280;7.148;2023-04-01T02:25:07;1.1;;;0.2;;
38220;SDS011;24023;51.280;7.148;2023-04-01T02:30:09;0.5;;;0.1;;
38220;SDS011;24023;51.280;7.148;2023-04-01T02:35:07;0.5;;;0.1;;
38220;SDS011;24023;51.280;7.148;2023-04-01T02:40:08;1.2;;;0.2;;
38220;SDS011;24023;51.280;7.148;2023-04-01T02:45:11;1.2;;;0.2;;
38220;SDS011;24023;51.280;7.148;2023-04-01T02:50:08;1.0;;;0.2;;
38220;SDS011;24023;51.280;7.148;2023-04-01T02:55:07;1.0;;;0.2;;
38220;SDS011;24023;51.280;7.148;2023-04-01T03:00:12;1.0;;;0.2;;
38220;SDS011;24023;51.280;7.148;2023-04-01T03:05:07;1.0;;;0.2;;
38220;SDS011;24023;51.280;7.148;2023-04-01T03:10:08;1.0;;;0.2;;
38220;SDS011;24023;51.280;7.148;2023-04-01T03:15:09;1.0;;;0.2;;
38220;SDS011;24023;51.280;7.148;2023-04-01T03:20:08;1.0;;;0.2;;
38220;SDS011;24023;51.280;7.148;2023-04-01T03:25:08;1.0;;;0.2;;
38220;SDS011;24023;51.280;7.148;2023-04-01T03:30:09;0.8;;;0.2;;
38220;SDS011;24023;51.280;7.148;2023-04-01T03:35:07;0.8;;;0.2;;
38220;SDS011;24023;51.280;7.148;2023-04-01T03:40:08;0.5;;;0.2;;
38220;SDS011;24023;51.280;7.148;2023-04-01T03:45:09;0.5;;;0.2;;
38220;SDS011;24023;51.280;7.148;2023-04-01T03:50:08;0.5;;;0.2;;
38220;SDS011;24023;51.280;7.148;2023-04-01T03:55:06;0.5;;;0.2;;
38220;SDS011;24023;51.280;7.148;2023-04-01T04:00:11;0.5;;;0.2;;
38220;SDS011;24023;51.280;7.148;2023-04-01T04:05:07;0.6;;;0.2;;
38220;SDS011;24023;51.280;7.148;2023-04-01T04:10:08;0.6;;;0.2;;
38220;SDS011;24023;51.280;7.148;2023-04-01T04:15:07;0.6;;;0.2;;
38220;SDS011;24023;51.280;7.148;2023-04-01T04:20:08;0.6;;;0.3;;
38220;SDS011;24023;51.280;7.148;2023-04-01T04:25:07;0.6;;;0.3;;
38220;SDS011;24023;51.280;7.148;2023-04-01T04:30:09;1.0;;;0.2;;
38220;SDS011;24023;51.280;7.148;2023-04-01T04:35:07;1.0;;;0.2;;
38220;SDS011;24023;51.280;7.148;2023-04-01T04:40:08;0.6;;;0.4;;
38220;SDS011;24023;51.280;7.148;2023-04-01T04:45:10;0.6;;;0.4;;
38220;SDS011;24023;51.280;7.148;2023-04-01T04:50:08;0.6;;;0.4;;
38220;SDS011;24023;51.280;7.148;2023-04-01T04:55:06;1.8;;;0.4;;
38220;SDS011;24023;51.280;7.148;2023-04-01T05:00:11;1.8;;;0.4;;
38220;SDS011;24023;51.280;7.148;2023-04-01T05:05:06;1.4;;;0.4;;
38220;SDS011;24023;51.280;7.148;2023-04-01T05:10:08;1.4;;;0.4;;
38220;SDS011;24023;51.280;7.148;2023-04-01T05:15:08;1.4;;;0.4;;
38220;SDS011;24023;51.280;7.148;2023-04-01T05:20:07;1.1;;;0.2;;
38220;SDS011;24023;51.280;7.148;2023-04-01T05:25:06;1.1;;;0.2;;
38220;SDS011;24023;51.280;7.148;2023-04-01T05:30:09;0.5;;;0.2;;
38220;SDS011;24023;51.280;7.148;2023-04-01T05:35:07;0.5;;;0.2;;
38220;SDS011;24023;51.280;7.148;2023-04-01T05:40:08;0.5;;;0.2;;
38220;SDS011;24023;51.280;7.148;2023-04-01T05:45:09;1.1;;;0.2;;
38220;SDS011;24023;51.280;7.148;2023-04-01T05:50:08;1.1;;;0.2;;
38220;SDS011;24023;51.280;7.148;2023-04-01T05:55:07;1.0;;;0.3;;
38220;SDS011;24023;51.280;7.148;2023-04-01T06:00:11;1.0;;;0.3;;
38220;SDS011;24023;51.280;7.148;2023-04-01T06:05:11;0.5;;;0.2;;
38220;SDS011;24023;51.280;7.148;2023-04-01T06:10:10;0.5;;;0.2;;
38220;SDS011;24023;51.280;7.148;2023-04-01T06:15:11;0.5;;;0.2;;
38220;SDS011;24023;51.280;7.148;2023-04-01T06:20:09;1.2;;;0.3;;
38220;SDS011;24023;51.280;7.148;2023-04-01T06:25:12;1.2;;;0.3;;
38220;SDS011;24023;51.280;7.148;2023-04-01T06:30:13;1.0;;;0.3;;
38220;SDS011;24023;51.280;7.148;2023-04-01T06:35:12;1.0;;;0.3;;
38220;SDS011;24023;51.280;7.148;2023-04-01T06:40:12;1.0;;;0.3;;
38220;SDS011;24023;51.280;7.148;2023-04-01T06:45:14;0.5;;;0.2;;
38220;SDS011;24023;51.280;7.148;2023-04-01T06:50:11;0.5;;;0.2;;
38220;SDS011;24023;51.280;7.148;2023-04-01T06:55:16;1.3;;;0.6;;
38220;SDS011;24023;51.280;7.148;2023-04-01T07:05:06;1.3;;;0.6;;
38220;SDS011;24023;51.280;7.148;2023-04-01T07:10:11;0.6;;;0.3;;
38220;SDS011;24023;51.280;7.148;2023-04-01T07:15:11;0.6;;;0.3;;
38220;SDS011;24023;51.280;7.148;2023-04-01T07:20:11;1.5;;;0.4;;
38220;SDS011;24023;51.280;7.148;2023-04-01T07:25:11;1.5;;;0.4;;
38220;SDS011;24023;51.280;7.148;2023-04-01T07:30:13;1.5;;;0.4;;
38220;SDS011;24023;51.280;7.148;2023-04-01T07:35:09;0.4;;;0.3;;
38220;SDS011;24023;51.280;7.148;2023-04-01T07:40:12;0.4;;;0.3;;
38220;SDS011;24023;51.280;7.148;2023-04-01T07:45:11;0.9;;;0.2;;
38220;SDS011;24023;51.280;7.148;2023-04-01T07:50:11;0.9;;;0.2;;
38220;SDS011;24023;51.280;7.148;2023-04-01T07:55:07;0.4;;;0.2;;
38220;SDS011;24023;51.280;7.148;2023-04-01T08:00:12;0.4;;;0.2;;
38220;SDS011;24023;51.280;7.148;2023-04-01T08:05:09;0.4;;;0.2;;
38220;SDS011;24023;51.280;7.148;2023-04-01T08:10:10;0.7;;;0.3;;
38220;SDS011;24023;51.280;7.148;2023-04-01T08:15:10;0.7;;;0.3;;
38220;SDS011;24023;51.280;7.148;2023-04-01T08:20:12;0.6;;;0.4;;
38220;SDS011;24023;51.280;7.148;2023-04-01T08:25:10;0.6;;;0.4;;
38220;SDS011;24023;51.280;7.148;2023-04-01T08:30:15;0.6;;;0.4;;
38220;SDS011;24023;51.280;7.148;2023-04-01T08:35:07;0.6;;;0.3;;
38220;SDS011;24023;51.280;7.148;2023-04-01T08:40:16;0.6;;;0.3;;
38220;SDS011;24023;51.280;7.148;2023-04-01T08:45:11;1.8;;;0.4;;
38220;SDS011;24023;51.280;7.148;2023-04-01T08:56:12;1.8;;;0.4;;
38220;SDS011;24023;51.280;7.148;2023-04-01T09:00:15;0.5;;;0.3;;
38220;SDS011;24023;51.280;7.148;2023-04-01T09:05:40;0.5;;;0.3;;
38220;SDS011;24023;51.280;7.148;2023-04-01T09:10:14;0.9;;;0.3;;
38220;SDS011;24023;51.280;7.148;2023-04-01T09:16:15;0.9;;;0.3;;
38220;SDS011;24023;51.280;7.148;2023-04-01T09:20:17;0.9;;;0.3;;
38220;SDS011;24023;51.280;7.148;2023-04-01T09:25:13;0.4;;;0.3;;
38220;SDS011;24023;51.280;7.148;2023-04-01T09:30:23;0.4;;;0.3;;
38220;SDS011;24023;51.280;7.148;2023-04-01T09:35:10;1.1;;;0.8;;
38220;SDS011;24023;51.280;7.148;2023-04-01T09:40:09;1.1;;;0.8;;
38220;SDS011;24023;51.280;7.148;2023-04-01T09:45:09;2.4;;;1.3;;
38220;SDS011;24023;51.280;7.148;2023-04-01T09:50:17;2.4;;;1.3;;
38220;SDS011;24023;51.280;7.148;2023-04-01T09:55:14;2.4;;;1.3;;
38220;SDS011;24023;51.280;7.148;2023-04-01T10:00:15;2.9;;;2.7;;
38220;SDS011;24023;51.280;7.148;2023-04-01T10:05:13;2.9;;;2.7;;
38220;SDS011;24023;51.280;7.148;2023-04-01T10:15:27;2.8;;;2.6;;
38220;SDS011;24023;51.280;7.148;2023-04-01T10:20:12;2.8;;;2.6;;
38220;SDS011;24023;51.280;7.148;2023-04-01T10:30:20;2.8;;;2.6;;
38220;SDS011;24023;51.280;7.148;2023-04-01T10:35:14;3.4;;;3.1;;
38220;SDS011;24023;51.280;7.148;2023-04-01T10:40:13;3.4;;;3.1;;
38220;SDS011;24023;51.280;7.148;2023-04-01T10:50:15;3.5;;;3.2;;
38220;SDS011;24023;51.280;7.148;2023-04-01T10:55:15;3.5;;;3.2;;
38220;SDS011;24023;51.280;7.148;2023-04-01T11:00:16;4.2;;;2.3;;
38220;SDS011;24023;51.280;7.148;2023-04-01T11:06:30;4.2;;;2.3;;
38220;SDS011;24023;51.280;7.148;2023-04-01T11:10:16;1.5;;;1.4;;
38220;SDS011;24023;51.280;7.148;2023-04-01T11:15:19;1.5;;;1.4;;
38220;SDS011;24023;51.280;7.148;2023-04-01T11:20:14;1.2;;;1.1;;
38220;SDS011;24023;51.280;7.148;2023-04-01T11:25:13;1.2;;;1.1;;
38220;SDS011;24023;51.280;7.148;2023-04-01T11:30:14;1.2;;;1.1;;
38220;SDS011;24023;51.280;7.148;2023-04-01T11:35:12;1.5;;;1.0;;
38220;SDS011;24023;51.280;7.148;2023-04-01T11:40:11;1.5;;;1.0;;
38220;SDS011;24023;51.280;7.148;2023-04-01T11:45:16;0.8;;;0.8;;
38220;SDS011;24023;51.280;7.148;2023-04-01T11:50:12;0.8;;;0.8;;
38220;SDS011;24023;51.280;7.148;2023-04-01T11:55:10;0.8;;;0.8;;
38220;SDS011;24023;51.280;7.148;2023-04-01T12:00:15;1.8;;;1.2;;
38220;SDS011;24023;51.280;7.148;2023-04-01T12:05:38;1.8;;;1.2;;
38220;SDS011;24023;51.280;7.148;2023-04-01T12:10:12;2.1;;;1.7;;
38220;SDS011;24023;51.280;7.148;2023-04-01T12:15:13;2.1;;;1.7;;
38220;SDS011;24023;51.280;7.148;2023-04-01T12:20:26;1.7;;;1.4;;
38220;SDS011;24023;51.280;7.148;2023-04-01T12:25:07;1.7;;;1.4;;
38220;SDS011;24023;51.280;7.148;2023-04-01T12:31:18;3.9;;;3.2;;
38220;SDS011;24023;51.280;7.148;2023-04-01T12:35:16;3.9;;;3.2;;
38220;SDS011;24023;51.280;7.148;2023-04-01T12:40:17;3.5;;;3.2;;
38220;SDS011;24023;51.280;7.148;2023-04-01T12:45:16;3.5;;;3.2;;
38220;SDS011;24023;51.280;7.148;2023-04-01T12:50:26;3.5;;;3.2;;
38220;SDS011;24023;51.280;7.148;2023-04-01T12:55:13;3.7;;;3.0;;
38220;SDS011;24023;51.280;7.148;2023-04-01T13:00:13;3.7;;;3.0;;
38220;SDS011;24023;51.280;7.148;2023-04-01T13:05:16;4.1;;;3.7;;
38220;SDS011;24023;51.280;7.148;2023-04-01T13:10:09;4.1;;;3.7;;
38220;SDS011;24023;51.280;7.148;2023-04-01T13:15:18;4.1;;;3.7;;
38220;SDS011;24023;51.280;7.148;2023-04-01T13:20:11;6.7;;;5.4;;
38220;SDS011;24023;51.280;7.148;2023-04-01T13:25:06;6.7;;;5.4;;
38220;SDS011;24023;51.280;7.148;2023-04-01T13:30:18;8.3;;;6.2;;
38220;SDS011;24023;51.280;7.148;2023-04-01T13:35:10;8.3;;;6.2;;
38220;SDS011;24023;51.280;7.148;2023-04-01T13:40:40;4.0;;;3.6;;
38220;SDS011;24023;51.280;7.148;2023-04-01T13:45:10;4.0;;;3.6;;
38220;SDS011;24023;51.280;7.148;2023-04-01T13:51:15;4.0;;;3.7;;
38220;SDS011;24023;51.280;7.148;2023-04-01T13:55:11;4.0;;;3.7;;
38220;SDS011;24023;51.280;7.148;2023-04-01T14:00:28;4.0;;;3.7;;
38220;SDS011;24023;51.280;7.148;2023-04-01T14:05:09;3.8;;;3.5;;
38220;SDS011;24023;51.280;7.148;2023-04-01T14:10:13;3.8;;;3.5;;
38220;SDS011;24023;51.280;7.148;2023-04-01T14:15:14;4.1;;;3.7;;
38220;SDS011;24023;51.280;7.148;2023-04-01T14:20:20;4.1;;;3.7;;
38220;SDS011;24023;51.280;7.148;2023-04-01T14:25:14;4.1;;;3.7;;
38220;SDS011;24023;51.280;7.148;2023-04-01T14:30:20;2.8;;;2.6;;
38220;SDS011;24023;51.280;7.148;2023-04-01T14:35:14;2.8;;;2.6;;
38220;SDS011;24023;51.280;7.148;2023-04-01T14:40:19;5.1;;;3.6;;
38220;SDS011;24023;51.280;7.148;2023-04-01T14:46:19;5.1;;;3.6;;
38220;SDS011;24023;51.280;7.148;2023-04-01T14:50:09;3.5;;;2.7;;
38220;SDS011;24023;51.280;7.148;2023-04-01T14:55:28;3.5;;;2.7;;
38220;SDS011;24023;51.280;7.148;2023-04-01T15:00:13;9.3;;;8.3;;
38220;SDS011;24023;51.280;7.148;2023-04-01T15:05:10;9.3;;;8.3;;
38220;SDS011;24023;51.280;7.148;2023-04-01T15:10:09;17.5;;;13.8;;
38220;SDS011;24023;51.280;7.148;2023-04-01T15:15:18;17.5;;;13.8;;
38220;SDS011;24023;51.280;7.148;2023-04-01T15:20:12;2.2;;;2.0;;
38220;SDS011;24023;51.280;7.148;2023-04-01T15:25:15;2.2;;;2.0;;
38220;SDS011;24023;51.280;7.148;2023-04-01T15:30:27;4.9;;;4.4;;
38220;SDS011;24023;51.280;7.148;2023-04-01T15:35:10;4.9;;;4.4;;
38220;SDS011;24023;51.280;7.148;2023-04-01T15:40:14;2.4;;;2.2;;
38220;SDS011;24023;51.280;7.148;2023-04-01T15:45:13;2.4;;;2.2;;
38220;SDS011;24023;51.280;7.148;2023-04-01T15:51:07;2.9;;;2.7;;
38220;SDS011;24023;51.280;7.148;2023-04-01T15:55:11;2.9;;;2.7;;
38220;SDS011;24023;51.280;7.148;2023-04-01T16:00:18;2.9;;;2.7;;
38220;SDS011;24023;51.280;7.148;2023-04-01T16:05:07;1.6;;;1.4;;
38220;SDS011;24023;51.280;7.148;2023-04-01T16:10:16;1.6;;;1.4;;
38220;SDS011;24023;51.280;7.148;2023-04-01T16:15:10;1.5;;;1.3;;
38220;SDS011;24023;51.280;7.148;2023-04-01T16:20:13;1.5;;;1.3;;
38220;SDS011;24023;51.280;7.148;2023-04-01T16:25:14;1.5;;;1.4;;
38220;SDS011;24023;51.280;7.148;2023-04-01T16:30:17;1.5;;;1.4;;
38220;SDS011;24023;51.280;7.148;2023-04-01T16:35:23;1.5;;;1.4;;
38220;SDS011;24023;51.280;7.148;2023-04-01T16:40:13;1.6;;;1.5;;
38220;SDS011;24023;51.280;7.148;2023-04-01T16:45:30;1.6;;;1.5;;
38220;SDS011;24023;51.280;7.148;2023-04-01T16:50:13;2.1;;;2.0;;
38220;SDS011;24023;51.280;7.148;2023-04-01T16:55:12;2.1;;;2.0;;
38220;SDS011;24023;51.280;7.148;2023-04-01T17:00:15;2.1;;;2.0;;
38220;SDS011;24023;51.280;7.148;2023-04-01T17:05:08;2.2;;;2.1;;
38220;SDS011;24023;51.280;7.148;2023-04-01T17:10:16;2.2;;;2.1;;
38220;SDS011;24023;51.280;7.148;2023-04-01T17:15:10;2.5;;;2.3;;
38220;SDS011;24023;51.280;7.148;2023-04-01T17:20:12;2.5;;;2.3;;
38220;SDS011;24023;51.280;7.148;2023-04-01T17:25:13;2.5;;;2.3;;
38220;SDS011;24023;51.280;7.148;2023-04-01T17:30:13;2.5;;;2.3;;
38220;SDS011;24023;51.280;7.148;2023-04-01T17:35:08;2.5;;;2.3;;
38220;SDS011;24023;51.280;7.148;2023-04-01T17:40:13;2.8;;;2.6;;
38220;SDS011;24023;51.280;7.148;2023-04-01T17:45:10;2.8;;;2.6;;
38220;SDS011;24023;51.280;7.148;2023-04-01T17:50:10;2.8;;;2.6;;
38220;SDS011;24023;51.280;7.148;2023-04-01T17:55:24;2.1;;;1.9;;
38220;SDS011;24023;51.280;7.148;2023-04-01T18:00:16;2.1;;;1.9;;
38220;SDS011;24023;51.280;7.148;2023-04-01T18:06:12;2.9;;;2.6;;
38220;SDS011;24023;51.280;7.148;2023-04-01T18:10:12;2.9;;;2.6;;
38220;SDS011;24023;51.280;7.148;2023-04-01T18:15:12;2.7;;;2.5;;
38220;SDS011;24023;51.280;7.148;2023-04-01T18:20:14;2.7;;;2.5;;
38220;SDS011;24023;51.280;7.148;2023-04-01T18:25:12;2.7;;;2.5;;
38220;SDS011;24023;51.280;7.148;2023-04-01T18:30:11;2.7;;;2.5;;
38220;SDS011;24023;51.280;7.148;2023-04-01T18:35:26;2.7;;;2.5;;
38220;SDS011;24023;51.280;7.148;2023-04-01T18:40:11;3.0;;;2.7;;
38220;SDS011;24023;51.280;7.148;2023-04-01T18:45:14;3.0;;;2.7;;
38220;SDS011;24023;51.280;7.148;2023-04-01T18:50:11;3.0;;;2.7;;
38220;SDS011;24023;51.280;7.148;2023-04-01T18:55:39;2.8;;;2.4;;
38220;SDS011;24023;51.280;7.148;2023-04-01T19:00:13;2.8;;;2.4;;
38220;SDS011;24023;51.280;7.148;2023-04-01T19:05:09;2.4;;;2.2;;
38220;SDS011;24023;51.280;7.148;2023-04-01T19:10:25;2.4;;;2.2;;
38220;SDS011;24023;51.280;7.148;2023-04-01T19:15:12;2.4;;;2.2;;
38220;SDS011;24023;51.280;7.148;2023-04-01T19:20:10;2.2;;;2.0;;
38220;SDS011;24023;51.280;7.148;2023-04-01T19:25:12;2.2;;;2.0;;
38220;SDS011;24023;51.280;7.148;2023-04-01T19:30:13;2.8;;;2.6;;
38220;SDS011;24023;51.280;7.148;2023-04-01T19:35:10;2.8;;;2.6;;
38220;SDS011;24023;51.280;7.148;2023-04-01T19:40:15;2.8;;;2.6;;
38220;SDS011;24023;51.280;7.148;2023-04-01T19:45:14;2.2;;;2.1;;
38220;SDS011;24023;51.280;7.148;2023-04-01T19:50:10;2.2;;;2.1;;
38220;SDS011;24023;51.280;7.148;2023-04-01T19:55:10;3.2;;;2.9;;
38220;SDS011;24023;51.280;7.148;2023-04-01T20:00:14;3.2;;;2.9;;
38220;SDS011;24023;51.280;7.148;2023-04-01T20:05:27;2.0;;;1.9;;
38220;SDS011;24023;51.280;7.148;2023-04-01T20:10:08;2.0;;;1.9;;
38220;SDS011;24023;51.280;7.148;2023-04-01T20:15:20;2.0;;;1.9;;
38220;SDS011;24023;51.280;7.148;2023-04-01T20:20:15;1.7;;;1.3;;
38220;SDS011;24023;51.280;7.148;2023-04-01T20:25:10;1.7;;;1.3;;
38220;SDS011;24023;51.280;7.148;2023-04-01T20:30:17;2.6;;;2.4;;
38220;SDS011;24023;51.280;7.148;2023-04-01T20:35:16;2.6;;;2.4;;
38220;SDS011;24023;51.280;7.148;2023-04-01T20:40:15;2.6;;;2.4;;
38220;SDS011;24023;51.280;7.148;2023-04-01T20:45:22;1.8;;;1.3;;
38220;SDS011;24023;51.280;7.148;2023-04-01T20:50:08;1.8;;;1.3;;
38220;SDS011;24023;51.280;7.148;2023-04-01T20:55:15;1.5;;;1.4;;
38220;SDS011;24023;51.280;7.148;2023-04-01T21:00:18;1.5;;;1.4;;
38220;SDS011;24023;51.280;7.148;2023-04-01T21:05:19;1.5;;;1.4;;
38220;SDS011;24023;51.280;7.148;2023-04-01T21:10:12;1.7;;;1.6;;
38220;SDS011;24023;51.280;7.148;2023-04-01T21:15:12;1.7;;;1.6;;
38220;SDS011;24023;51.280;7.148;2023-04-01T21:20:16;1.4;;;1.0;;
38220;SDS011;24023;51.280;7.148;2023-04-01T21:25:17;1.4;;;1.0;;
38220;SDS011;24023;51.280;7.148;2023-04-01T21:30:15;1.3;;;1.2;;
38220;SDS011;24023;51.280;7.148;2023-04-01T21:35:08;1.3;;;1.2;;
38220;SDS011;24023;51.280;7.148;2023-04-01T21:40:27;3.9;;;3.5;;
38220;SDS011;24023;51.280;7.148;2023-04-01T21:45:12;3.9;;;3.5;;
38220;SDS011;24023;51.280;7.148;2023-04-01T21:50:41;4.3;;;4.0;;
38220;SDS011;24023;51.280;7.148;2023-04-01T21:55:27;4.3;;;4.0;;
38220;SDS011;24023;51.280;7.148;2023-04-01T22:00:19;2.4;;;2.2;;
38220;SDS011;24023;51.280;7.148;2023-04-01T22:05:07;2.4;;;2.2;;
38220;SDS011;24023;51.280;7.148;2023-04-01T22:10:10;1.9;;;1.6;;
38220;SDS011;24023;51.280;7.148;2023-04-01T22:15:10;1.9;;;1.6;;
38220;SDS011;24023;51.280;7.148;2023-04-01T22:20:15;1.9;;;1.6;;
38220;SDS011;24023;51.280;7.148;2023-04-01T22:25:07;0.8;;;0.6;;
38220;SDS011;24023;51.280;7.148;2023-04-01T22:30:11;0.8;;;0.6;;
38220;SDS011;24023;51.280;7.148;2023-04-01T22:35:09;0.5;;;0.5;;
38220;SDS011;24023;51.280;7.148;2023-04-01T22:40:12;0.5;;;0.5;;
38220;SDS011;24023;51.280;7.148;2023-04-01T22:45:24;0.5;;;0.5;;
38220;SDS011;24023;51.280;7.148;2023-04-01T22:50:10;0.5;;;0.4;;
38220;SDS011;24023;51.280;7.148;2023-04-01T22:55:08;0.5;;;0.4;;
38220;SDS011;24023;51.280;7.148;2023-04-01T23:00:12;0.5;;;0.4;;
38220;SDS011;24023;51.280;7.148;2023-04-01T23:05:09;0.5;;;0.4;;
38220;SDS011;24023;51.280;7.148;2023-04-01T23:10:12;0.5;;;0.5;;
38220;SDS011;24023;51.280;7.148;2023-04-01T23:15:08;0.5;;;0.5;;
38220;SDS011;24023;51.280;7.148;2023-04-01T23:20:13;0.5;;;0.5;;
38220;SDS011;24023;51.280;7.148;2023-04-01T23:25:14;0.6;;;0.5;;
38220;SDS011;24023;51.280;7.148;2023-04-01T23:30:14;0.6;;;0.5;;
38220;SDS011;24023;51.280;7.148;2023-04-01T23:35:11;0.5;;;0.5;;
38220;SDS011;24023;51.280;7.148;2023-04-01T23:40:10;0.5;;;0.5;;
38220;SDS011;24023;51.280;7.148;2023-04-01T23:45:11;0.5;;;0.5;;
38220;SDS011;24023;51.280;7.148;2023-04-01T23:50:09;0.5;;;0.5;;
38220;SDS011;24023;51.280;7.148;2023-04-01T23:55:12;0.5;;;0.5;;
